sensor_id;sensor_type;location;lat;lon;timestamp;pressure;altitude;pressure_sealevel;temperature;humidity
46015;BME280;36844;51.898;-0.874;2023-01-25T00:00:19;102563.22;;;17.49;
46015;BME280;36844;51.898;-0.874;2023-01-25T00:02:45;102563.91;;;17.46;
46015;BME280;36844;51.898;-0.874;2023-01-25T00:05:10;102554.91;;;17.42;
46015;BME280;36844;51.898;-0.874;2023-01-25T00:07:35;102551.75;;;17.40;
46015;BME280;36844;51.898;-0.874;2023-01-25T00:10:00;102551.31;;;17.38;
46015;BME280;36844;51.898;-0.874;2023-01-25T00:12:25;102553.53;;;17.36;
46015;BME280;36844;51.898;-0.874;2023-01-25T00:14:51;102544.25;;;17.34;
46015;BME280;36844;51.898;-0.874;2023-01-25T00:17:16;102551.91;;;17.32;
46015;BME280;36844;51.898;-0.874;2023-01-25T00:19:41;102550.63;;;17.29;
46015;BME280;36844;51.898;-0.874;2023-01-25T00:22:06;102544.81;;;17.27;
46015;BME280;36844;51.898;-0.874;2023-01-25T00:24:32;102542.81;;;17.24;
46015;BME280;36844;51.898;-0.874;2023-01-25T00:26:57;102548.50;;;17.23;
46015;BME280;36844;51.898;-0.874;2023-01-25T00:29:22;102551.91;;;17.20;
46015;BME280;36844;51.898;-0.874;2023-01-25T00:34:32;102550.66;;;17.17;
46015;BME280;36844;51.898;-0.874;2023-01-25T00:37:02;102546.28;;;17.13;
46015;BME280;36844;51.898;-0.874;2023-01-25T00:39:34;102555.78;;;17.10;
46015;BME280;36844;51.898;-0.874;2023-01-25T00:42:00;102541.91;;;17.08;
46015;BME280;36844;51.898;-0.874;2023-01-25T00:44:25;102536.06;;;17.06;
46015;BME280;36844;51.898;-0.874;2023-01-25T00:46:50;102541.00;;;17.04;
46015;BME280;36844;51.898;-0.874;2023-01-25T00:49:25;102540.56;;;17.02;
46015;BME280;36844;51.898;-0.874;2023-01-25T00:51:51;102535.81;;;16.99;
46015;BME280;36844;51.898;-0.874;2023-01-25T00:54:17;102536.94;;;16.98;
46015;BME280;36844;51.898;-0.874;2023-01-25T00:56:42;102534.91;;;16.95;
46015;BME280;36844;51.898;-0.874;2023-01-25T00:59:08;102524.53;;;16.94;
46015;BME280;36844;51.898;-0.874;2023-01-25T01:01:33;102528.66;;;16.91;
46015;BME280;36844;51.898;-0.874;2023-01-25T01:03:59;102523.63;;;16.90;
46015;BME280;36844;51.898;-0.874;2023-01-25T01:06:24;102529.66;;;16.87;
46015;BME280;36844;51.898;-0.874;2023-01-25T01:08:49;102523.81;;;16.85;
46015;BME280;36844;51.898;-0.874;2023-01-25T01:11:14;102520.66;;;16.83;
46015;BME280;36844;51.898;-0.874;2023-01-25T01:13:40;102515.63;;;16.81;
46015;BME280;36844;51.898;-0.874;2023-01-25T01:16:05;102523.25;;;16.79;
46015;BME280;36844;51.898;-0.874;2023-01-25T01:18:35;102520.09;;;16.77;
46015;BME280;36844;51.898;-0.874;2023-01-25T01:21:01;102520.78;;;16.74;
46015;BME280;36844;51.898;-0.874;2023-01-25T01:23:29;102516.50;;;16.73;
46015;BME280;36844;51.898;-0.874;2023-01-25T01:25:55;102507.97;;;16.71;
46015;BME280;36844;51.898;-0.874;2023-01-25T01:28:20;102509.13;;;16.70;
46015;BME280;36844;51.898;-0.874;2023-01-25T01:30:45;102510.56;;;16.67;
46015;BME280;36844;51.898;-0.874;2023-01-25T01:33:10;102501.25;;;16.65;
46015;BME280;36844;51.898;-0.874;2023-01-25T01:35:36;102500.44;;;16.64;
46015;BME280;36844;51.898;-0.874;2023-01-25T01:38:01;102508.09;;;16.62;
46015;BME280;36844;51.898;-0.874;2023-01-25T01:40:26;102509.19;;;16.61;
46015;BME280;36844;51.898;-0.874;2023-01-25T01:43:02;102497.22;;;16.59;
46015;BME280;36844;51.898;-0.874;2023-01-25T01:48:29;102503.59;;;16.54;
46015;BME280;36844;51.898;-0.874;2023-01-25T01:50:58;102513.09;;;16.52;
46015;BME280;36844;51.898;-0.874;2023-01-25T01:53:24;102517.72;;;16.51;
46015;BME280;36844;51.898;-0.874;2023-01-25T01:55:50;102517.25;;;16.49;
46015;BME280;36844;51.898;-0.874;2023-01-25T01:58:16;102525.66;;;16.48;
46015;BME280;36844;51.898;-0.874;2023-01-25T02:00:42;102513.63;;;16.45;
46015;BME280;36844;51.898;-0.874;2023-01-25T02:03:08;102519.34;;;16.44;
46015;BME280;36844;51.898;-0.874;2023-01-25T02:05:43;102520.50;;;16.43;
46015;BME280;36844;51.898;-0.874;2023-01-25T02:08:11;102516.53;;;16.40;
46015;BME280;36844;51.898;-0.874;2023-01-25T02:10:37;102515.78;;;16.40;
46015;BME280;36844;51.898;-0.874;2023-01-25T02:13:03;102519.88;;;16.37;
46015;BME280;36844;51.898;-0.874;2023-01-25T02:15:32;102523.69;;;16.36;
46015;BME280;36844;51.898;-0.874;2023-01-25T02:17:59;102516.78;;;16.35;
46015;BME280;36844;51.898;-0.874;2023-01-25T02:20:35;102518.97;;;16.33;
46015;BME280;36844;51.898;-0.874;2023-01-25T02:23:06;102517.41;;;16.32;
46015;BME280;36844;51.898;-0.874;2023-01-25T02:25:34;102516.97;;;16.30;
46015;BME280;36844;51.898;-0.874;2023-01-25T02:28:02;102511.91;;;16.29;
46015;BME280;36844;51.898;-0.874;2023-01-25T02:30:28;102507.66;;;16.28;
46015;BME280;36844;51.898;-0.874;2023-01-25T02:32:54;102506.09;;;16.27;
46015;BME280;36844;51.898;-0.874;2023-01-25T02:35:21;102509.09;;;16.25;
46015;BME280;36844;51.898;-0.874;2023-01-25T02:37:46;102506.75;;;16.24;
46015;BME280;36844;51.898;-0.874;2023-01-25T02:40:11;102503.59;;;16.22;
46015;BME280;36844;51.898;-0.874;2023-01-25T02:42:37;102505.50;;;16.21;
46015;BME280;36844;51.898;-0.874;2023-01-25T02:45:05;102499.69;;;16.19;
46015;BME280;36844;51.898;-0.874;2023-01-25T02:47:33;102491.91;;;16.18;
46015;BME280;36844;51.898;-0.874;2023-01-25T02:49:58;102493.84;;;16.17;
46015;BME280;36844;51.898;-0.874;2023-01-25T02:52:24;102485.31;;;16.15;
46015;BME280;36844;51.898;-0.874;2023-01-25T02:54:49;102481.41;;;16.13;
46015;BME280;36844;51.898;-0.874;2023-01-25T02:57:14;102486.78;;;16.13;
46015;BME280;36844;51.898;-0.874;2023-01-25T02:59:39;102485.19;;;16.12;
46015;BME280;36844;51.898;-0.874;2023-01-25T03:02:05;102478.59;;;16.09;
46015;BME280;36844;51.898;-0.874;2023-01-25T03:04:32;102488.56;;;16.09;
46015;BME280;36844;51.898;-0.874;2023-01-25T03:06:57;102485.06;;;16.08;
46015;BME280;36844;51.898;-0.874;2023-01-25T03:09:22;102489.97;;;16.06;
46015;BME280;36844;51.898;-0.874;2023-01-25T03:11:47;102481.91;;;16.06;
46015;BME280;36844;51.898;-0.874;2023-01-25T03:14:13;102483.38;;;16.04;
46015;BME280;36844;51.898;-0.874;2023-01-25T03:16:38;102482.56;;;16.03;
46015;BME280;36844;51.898;-0.874;2023-01-25T03:19:03;102479.47;;;16.01;
46015;BME280;36844;51.898;-0.874;2023-01-25T03:21:28;102469.81;;;16.00;
46015;BME280;36844;51.898;-0.874;2023-01-25T03:23:54;102470.13;;;15.99;
46015;BME280;36844;51.898;-0.874;2023-01-25T03:26:21;102471.25;;;15.98;
46015;BME280;36844;51.898;-0.874;2023-01-25T03:28:46;102475.06;;;15.97;
46015;BME280;36844;51.898;-0.874;2023-01-25T03:31:13;102470.78;;;15.96;
46015;BME280;36844;51.898;-0.874;2023-01-25T03:33:38;102471.88;;;15.95;
46015;BME280;36844;51.898;-0.874;2023-01-25T03:36:04;102470.34;;;15.94;
46015;BME280;36844;51.898;-0.874;2023-01-25T03:38:29;102459.91;;;15.92;
46015;BME280;36844;51.898;-0.874;2023-01-25T03:40:55;102462.59;;;15.92;
46015;BME280;36844;51.898;-0.874;2023-01-25T03:43:20;102464.81;;;15.90;
46015;BME280;36844;51.898;-0.874;2023-01-25T03:45:50;102463.28;;;15.89;
46015;BME280;36844;51.898;-0.874;2023-01-25T03:48:15;102461.69;;;15.88;
46015;BME280;36844;51.898;-0.874;2023-01-25T03:50:40;102456.63;;;15.86;
46015;BME280;36844;51.898;-0.874;2023-01-25T03:53:06;102460.47;;;15.85;
46015;BME280;36844;51.898;-0.874;2023-01-25T03:55:38;102460.78;;;15.84;
46015;BME280;36844;51.898;-0.874;2023-01-25T03:58:03;102467.25;;;15.83;
46015;BME280;36844;51.898;-0.874;2023-01-25T04:00:29;102474.50;;;15.82;
46015;BME280;36844;51.898;-0.874;2023-01-25T04:02:54;102483.72;;;15.81;
46015;BME280;36844;51.898;-0.874;2023-01-25T04:05:19;102476.78;;;15.80;
46015;BME280;36844;51.898;-0.874;2023-01-25T04:07:44;102477.06;;;15.79;
46015;BME280;36844;51.898;-0.874;2023-01-25T04:10:10;102474.75;;;15.77;
46015;BME280;36844;51.898;-0.874;2023-01-25T04:12:35;102473.97;;;15.77;
46015;BME280;36844;51.898;-0.874;2023-01-25T04:15:00;102470.47;;;15.76;
46015;BME280;36844;51.898;-0.874;2023-01-25T04:17:25;102476.94;;;15.75;
46015;BME280;36844;51.898;-0.874;2023-01-25T04:19:51;102477.28;;;15.74;
46015;BME280;36844;51.898;-0.874;2023-01-25T04:22:16;102480.75;;;15.74;
46015;BME280;36844;51.898;-0.874;2023-01-25T04:24:42;102477.63;;;15.72;
46015;BME280;36844;51.898;-0.874;2023-01-25T04:27:07;102483.31;;;15.71;
46015;BME280;36844;51.898;-0.874;2023-01-25T04:29:33;102486.34;;;15.69;
46015;BME280;36844;51.898;-0.874;2023-01-25T04:31:58;102485.22;;;15.70;
46015;BME280;36844;51.898;-0.874;2023-01-25T04:34:23;102484.75;;;15.68;
46015;BME280;36844;51.898;-0.874;2023-01-25T04:36:49;102480.47;;;15.67;
46015;BME280;36844;51.898;-0.874;2023-01-25T04:39:14;102476.25;;;15.66;
46015;BME280;36844;51.898;-0.874;2023-01-25T04:41:39;102472.00;;;15.65;
46015;BME280;36844;51.898;-0.874;2023-01-25T04:44:04;102475.78;;;15.64;
46015;BME280;36844;51.898;-0.874;2023-01-25T04:46:30;102476.88;;;15.63;
46015;BME280;36844;51.898;-0.874;2023-01-25T04:48:55;102476.88;;;15.63;
46015;BME280;36844;51.898;-0.874;2023-01-25T04:51:20;102478.00;;;15.62;
46015;BME280;36844;51.898;-0.874;2023-01-25T04:53:45;102474.88;;;15.60;
46015;BME280;36844;51.898;-0.874;2023-01-25T04:56:11;102482.91;;;15.60;
46015;BME280;36844;51.898;-0.874;2023-01-25T04:58:36;102477.88;;;15.59;
46015;BME280;36844;51.898;-0.874;2023-01-25T05:01:01;102467.47;;;15.57;
46015;BME280;36844;51.898;-0.874;2023-01-25T05:03:27;102472.84;;;15.57;
46015;BME280;36844;51.898;-0.874;2023-01-25T05:05:52;102463.19;;;15.56;
46015;BME280;36844;51.898;-0.874;2023-01-25T05:08:17;102467.00;;;15.55;
46015;BME280;36844;51.898;-0.874;2023-01-25T05:10:43;102468.91;;;15.55;
46015;BME280;36844;51.898;-0.874;2023-01-25T05:13:08;102469.22;;;15.53;
46015;BME280;36844;51.898;-0.874;2023-01-25T05:15:33;102466.56;;;15.53;
46015;BME280;36844;51.898;-0.874;2023-01-25T05:17:58;102464.97;;;15.52;
46015;BME280;36844;51.898;-0.874;2023-01-25T05:20:23;102459.91;;;15.51;
46015;BME280;36844;51.898;-0.874;2023-01-25T05:22:49;102456.44;;;15.50;
46015;BME280;36844;51.898;-0.874;2023-01-25T05:25:14;102442.56;;;15.48;
46015;BME280;36844;51.898;-0.874;2023-01-25T05:27:58;102447.13;;;15.48;
46015;BME280;36844;51.898;-0.874;2023-01-25T05:30:23;102444.78;;;15.46;
46015;BME280;36844;51.898;-0.874;2023-01-25T05:32:49;102448.25;;;15.47;
46015;BME280;36844;51.898;-0.874;2023-01-25T05:35:14;102440.50;;;15.45;
46015;BME280;36844;51.898;-0.874;2023-01-25T05:37:39;102437.38;;;15.43;
46015;BME280;36844;51.898;-0.874;2023-01-25T05:40:05;102431.22;;;15.43;
46015;BME280;36844;51.898;-0.874;2023-01-25T05:42:30;102425.06;;;15.42;
46015;BME280;36844;51.898;-0.874;2023-01-25T05:44:56;102419.69;;;15.42;
46015;BME280;36844;51.898;-0.874;2023-01-25T05:47:21;102415.41;;;15.41;
46015;BME280;36844;51.898;-0.874;2023-01-25T05:49:46;102410.41;;;15.40;
46015;BME280;36844;51.898;-0.874;2023-01-25T05:52:12;102413.09;;;15.40;
46015;BME280;36844;51.898;-0.874;2023-01-25T05:54:38;102407.72;;;15.40;
46015;BME280;36844;51.898;-0.874;2023-01-25T05:57:03;102404.56;;;15.38;
46015;BME280;36844;51.898;-0.874;2023-01-25T05:59:28;102401.88;;;15.38;
46015;BME280;36844;51.898;-0.874;2023-01-25T06:01:53;102397.63;;;15.37;
46015;BME280;36844;51.898;-0.874;2023-01-25T06:04:19;102388.00;;;15.36;
46015;BME280;36844;51.898;-0.874;2023-01-25T06:06:44;102386.09;;;15.36;
46015;BME280;36844;51.898;-0.874;2023-01-25T06:09:10;102382.16;;;15.34;
46015;BME280;36844;51.898;-0.874;2023-01-25T06:11:35;102389.41;;;15.33;
46015;BME280;36844;51.898;-0.874;2023-01-25T06:14:00;102379.84;;;15.32;
46015;BME280;36844;51.898;-0.874;2023-01-25T06:16:26;102387.88;;;15.32;
46015;BME280;36844;51.898;-0.874;2023-01-25T06:18:51;102386.31;;;15.31;
46015;BME280;36844;51.898;-0.874;2023-01-25T06:21:16;102387.72;;;15.29;
46015;BME280;36844;51.898;-0.874;2023-01-25T06:23:42;102384.28;;;15.28;
46015;BME280;36844;51.898;-0.874;2023-01-25T06:26:09;102383.50;;;15.28;
46015;BME280;36844;51.898;-0.874;2023-01-25T06:28:35;102374.63;;;15.27;
46015;BME280;36844;51.898;-0.874;2023-01-25T06:31:05;102366.88;;;15.26;
46015;BME280;36844;51.898;-0.874;2023-01-25T06:33:30;102367.25;;;15.24;
46015;BME280;36844;51.898;-0.874;2023-01-25T06:36:03;102359.50;;;15.23;
46015;BME280;36844;51.898;-0.874;2023-01-25T06:38:28;102348.78;;;15.23;
46015;BME280;36844;51.898;-0.874;2023-01-25T06:40:57;102346.38;;;15.21;
46015;BME280;36844;51.898;-0.874;2023-01-25T06:43:22;102340.25;;;15.21;
46015;BME280;36844;51.898;-0.874;2023-01-25T06:45:47;102345.16;;;15.19;
46015;BME280;36844;51.898;-0.874;2023-01-25T06:48:12;102349.44;;;15.20;
46015;BME280;36844;51.898;-0.874;2023-01-25T06:50:38;102351.31;;;15.19;
46015;BME280;36844;51.898;-0.874;2023-01-25T06:53:04;102348.66;;;15.19;
46015;BME280;36844;51.898;-0.874;2023-01-25T06:55:29;102344.88;;;15.20;
46015;BME280;36844;51.898;-0.874;2023-01-25T06:57:58;102336.81;;;15.20;
46015;BME280;36844;51.898;-0.874;2023-01-25T07:00:23;102343.72;;;15.21;
46015;BME280;36844;51.898;-0.874;2023-01-25T07:02:49;102344.50;;;15.22;
46015;BME280;36844;51.898;-0.874;2023-01-25T07:05:14;102349.56;;;15.23;
46015;BME280;36844;51.898;-0.874;2023-01-25T07:07:39;102347.31;;;15.25;
46015;BME280;36844;51.898;-0.874;2023-01-25T07:10:08;102340.03;;;15.26;
46015;BME280;36844;51.898;-0.874;2023-01-25T07:12:33;102340.53;;;15.28;
46015;BME280;36844;51.898;-0.874;2023-01-25T07:14:59;102345.53;;;15.29;
46015;BME280;36844;51.898;-0.874;2023-01-25T07:17:24;102348.38;;;15.33;
46015;BME280;36844;51.898;-0.874;2023-01-25T07:19:49;102339.56;;;15.32;
46015;BME280;36844;51.898;-0.874;2023-01-25T07:22:14;102342.00;;;15.37;
46015;BME280;36844;51.898;-0.874;2023-01-25T07:24:40;102340.59;;;15.40;
46015;BME280;36844;51.898;-0.874;2023-01-25T07:27:05;102332.97;;;15.42;
46015;BME280;36844;51.898;-0.874;2023-01-25T07:29:30;102335.78;;;15.45;
46015;BME280;36844;51.898;-0.874;2023-01-25T07:31:55;102327.06;;;15.48;
46015;BME280;36844;51.898;-0.874;2023-01-25T07:34:21;102330.69;;;15.52;
46015;BME280;36844;51.898;-0.874;2023-01-25T07:36:46;102334.28;;;15.56;
46015;BME280;36844;51.898;-0.874;2023-01-25T07:39:11;102330.91;;;15.59;
46015;BME280;36844;51.898;-0.874;2023-01-25T07:41:37;102337.19;;;15.63;
46015;BME280;36844;51.898;-0.874;2023-01-25T07:44:02;102340.03;;;15.67;
46015;BME280;36844;51.898;-0.874;2023-01-25T07:46:27;102336.66;;;15.70;
46015;BME280;36844;51.898;-0.874;2023-01-25T07:48:53;102330.31;;;15.74;
46015;BME280;36844;51.898;-0.874;2023-01-25T07:51:19;102335.03;;;15.77;
46015;BME280;36844;51.898;-0.874;2023-01-25T07:54:02;102325.97;;;15.82;
46015;BME280;36844;51.898;-0.874;2023-01-25T07:56:29;102331.47;;;15.85;
46015;BME280;36844;51.898;-0.874;2023-01-25T07:58:55;102335.06;;;15.90;
46015;BME280;36844;51.898;-0.874;2023-01-25T08:01:22;102338.66;;;15.94;
46015;BME280;36844;51.898;-0.874;2023-01-25T08:03:47;102331.50;;;15.98;
46015;BME280;36844;51.898;-0.874;2023-01-25T08:06:13;102318.19;;;16.01;
46015;BME280;36844;51.898;-0.874;2023-01-25T08:08:39;102321.78;;;16.05;
46015;BME280;36844;51.898;-0.874;2023-01-25T08:11:21;102321.09;;;16.08;
46015;BME280;36844;51.898;-0.874;2023-01-25T08:13:47;102315.03;;;16.11;
46015;BME280;36844;51.898;-0.874;2023-01-25T08:16:14;102317.84;;;16.15;
46015;BME280;36844;51.898;-0.874;2023-01-25T08:18:41;102316.06;;;16.19;
46015;BME280;36844;51.898;-0.874;2023-01-25T08:21:06;102316.16;;;16.22;
46015;BME280;36844;51.898;-0.874;2023-01-25T08:23:31;102314.72;;;16.25;
46015;BME280;36844;51.898;-0.874;2023-01-25T08:26:03;102306.41;;;16.30;
46015;BME280;36844;51.898;-0.874;2023-01-25T08:28:29;102307.66;;;16.32;
46015;BME280;36844;51.898;-0.874;2023-01-25T08:30:54;102306.22;;;16.35;
46015;BME280;36844;51.898;-0.874;2023-01-25T08:33:19;102302.03;;;16.37;
46015;BME280;36844;51.898;-0.874;2023-01-25T08:35:54;102302.19;;;16.41;
46015;BME280;36844;51.898;-0.874;2023-01-25T08:38:20;102301.50;;;16.44;
46015;BME280;36844;51.898;-0.874;2023-01-25T08:40:45;102299.25;;;16.46;
46015;BME280;36844;51.898;-0.874;2023-01-25T08:43:11;102295.44;;;16.47;
46015;BME280;36844;51.898;-0.874;2023-01-25T08:45:36;102292.88;;;16.50;
46015;BME280;36844;51.898;-0.874;2023-01-25T08:48:01;102298.69;;;16.52;
46015;BME280;36844;51.898;-0.874;2023-01-25T08:50:26;102291.06;;;16.54;
46015;BME280;36844;51.898;-0.874;2023-01-25T08:52:52;102293.41;;;16.56;
46015;BME280;36844;51.898;-0.874;2023-01-25T08:55:17;102288.81;;;16.56;
46015;BME280;36844;51.898;-0.874;2023-01-25T08:57:42;102284.19;;;16.57;
46015;BME280;36844;51.898;-0.874;2023-01-25T09:00:08;102283.88;;;16.58;
46015;BME280;36844;51.898;-0.874;2023-01-25T09:02:33;102279.31;;;16.59;
46015;BME280;36844;51.898;-0.874;2023-01-25T09:04:59;102273.91;;;16.59;
46015;BME280;36844;51.898;-0.874;2023-01-25T09:07:24;102269.31;;;16.59;
46015;BME280;36844;51.898;-0.874;2023-01-25T09:09:49;102269.31;;;16.59;
46015;BME280;36844;51.898;-0.874;2023-01-25T09:12:14;102253.94;;;16.60;
46015;BME280;36844;51.898;-0.874;2023-01-25T09:14:40;102242.41;;;16.59;
46015;BME280;36844;51.898;-0.874;2023-01-25T09:17:05;102243.19;;;16.60;
46015;BME280;36844;51.898;-0.874;2023-01-25T09:19:30;102236.25;;;16.59;
46015;BME280;36844;51.898;-0.874;2023-01-25T09:21:55;102232.78;;;16.58;
46015;BME280;36844;51.898;-0.874;2023-01-25T09:24:21;102234.66;;;16.58;
46015;BME280;36844;51.898;-0.874;2023-01-25T09:26:46;102225.03;;;16.57;
46015;BME280;36844;51.898;-0.874;2023-01-25T09:29:11;102220.78;;;16.56;
46015;BME280;36844;51.898;-0.874;2023-01-25T09:31:37;102209.56;;;16.54;
46015;BME280;36844;51.898;-0.874;2023-01-25T09:34:08;102205.69;;;16.51;
46015;BME280;36844;51.898;-0.874;2023-01-25T09:36:33;102197.13;;;16.49;
46015;BME280;36844;51.898;-0.874;2023-01-25T09:38:58;102186.72;;;16.48;
46015;BME280;36844;51.898;-0.874;2023-01-25T09:41:33;102190.09;;;16.45;
46015;BME280;36844;51.898;-0.874;2023-01-25T09:44:08;102188.53;;;16.44;
46015;BME280;36844;51.898;-0.874;2023-01-25T09:46:49;102185.75;;;16.40;
46015;BME280;36844;51.898;-0.874;2023-01-25T09:49:31;102187.19;;;16.38;
46015;BME280;36844;51.898;-0.874;2023-01-25T09:54:38;102184.75;;;16.33;
46015;BME280;36844;51.898;-0.874;2023-01-25T09:57:08;102173.53;;;16.31;
46015;BME280;36844;51.898;-0.874;2023-01-25T09:59:37;102178.47;;;16.29;
46015;BME280;36844;51.898;-0.874;2023-01-25T10:02:11;102169.97;;;16.27;
46015;BME280;36844;51.898;-0.874;2023-01-25T10:04:41;102177.59;;;16.25;
46015;BME280;36844;51.898;-0.874;2023-01-25T10:12:13;102163.28;;;16.21;
46015;BME280;36844;51.898;-0.874;2023-01-25T10:14:39;102164.38;;;16.20;
46015;BME280;36844;51.898;-0.874;2023-01-25T10:17:05;102153.16;;;16.18;
46015;BME280;36844;51.898;-0.874;2023-01-25T10:22:19;102133.13;;;16.15;
46015;BME280;36844;51.898;-0.874;2023-01-25T10:27:25;102129.25;;;16.13;
46015;BME280;36844;51.898;-0.874;2023-01-25T10:29:55;102123.88;;;16.13;
46015;BME280;36844;51.898;-0.874;2023-01-25T10:32:30;102118.00;;;16.11;
46015;BME280;36844;51.898;-0.874;2023-01-25T10:34:59;102121.84;;;16.10;
46015;BME280;36844;51.898;-0.874;2023-01-25T10:37:30;102125.66;;;16.09;
46015;BME280;36844;51.898;-0.874;2023-01-25T10:42:29;102124.41;;;16.06;
46015;BME280;36844;51.898;-0.874;2023-01-25T10:44:55;102129.34;;;16.04;
46015;BME280;36844;51.898;-0.874;2023-01-25T10:47:34;102125.09;;;16.03;
46015;BME280;36844;51.898;-0.874;2023-01-25T10:50:01;102108.88;;;16.00;
46015;BME280;36844;51.898;-0.874;2023-01-25T10:52:28;102109.19;;;15.98;
46015;BME280;36844;51.898;-0.874;2023-01-25T10:57:52;102094.13;;;15.94;
46015;BME280;36844;51.898;-0.874;2023-01-25T11:02:53;102071.75;;;15.90;
46015;BME280;36844;51.898;-0.874;2023-01-25T11:07:49;102061.63;;;15.86;
46015;BME280;36844;51.898;-0.874;2023-01-25T11:10:34;102056.63;;;15.85;
46015;BME280;36844;51.898;-0.874;2023-01-25T11:15:40;102035.78;;;15.82;
46015;BME280;36844;51.898;-0.874;2023-01-25T11:18:09;102031.56;;;15.81;
46015;BME280;36844;51.898;-0.874;2023-01-25T11:20:36;102040.72;;;15.80;
46015;BME280;36844;51.898;-0.874;2023-01-25T11:23:02;102049.56;;;15.80;
46015;BME280;36844;51.898;-0.874;2023-01-25T11:28:08;102059.22;;;15.81;
46015;BME280;36844;51.898;-0.874;2023-01-25T11:30:34;102040.41;;;15.81;
46015;BME280;36844;51.898;-0.874;2023-01-25T11:32:59;102033.88;;;15.82;
46015;BME280;36844;51.898;-0.874;2023-01-25T11:35:26;102038.13;;;15.83;
46015;BME280;36844;51.898;-0.874;2023-01-25T11:38:03;102029.38;;;15.86;
46015;BME280;36844;51.898;-0.874;2023-01-25T11:51:04;102012.13;;;16.00;
46015;BME280;36844;51.898;-0.874;2023-01-25T11:53:45;102034.50;;;16.04;
46015;BME280;36844;51.898;-0.874;2023-01-25T11:56:19;102058.47;;;16.09;
46015;BME280;36844;51.898;-0.874;2023-01-25T12:01:35;102044.13;;;16.17;
46015;BME280;36844;51.898;-0.874;2023-01-25T12:24:50;102022.16;;;16.58;
46015;BME280;36844;51.898;-0.874;2023-01-25T12:29:48;102013.16;;;16.66;
46015;BME280;36844;51.898;-0.874;2023-01-25T12:32:27;102001.69;;;16.69;
46015;BME280;36844;51.898;-0.874;2023-01-25T12:37:38;101986.84;;;16.75;
46015;BME280;36844;51.898;-0.874;2023-01-25T12:40:08;101999.63;;;16.78;
46015;BME280;36844;51.898;-0.874;2023-01-25T12:42:36;101992.75;;;16.80;
46015;BME280;36844;51.898;-0.874;2023-01-25T12:48:03;101994.41;;;16.85;
46015;BME280;36844;51.898;-0.874;2023-01-25T12:50:27;101996.72;;;16.87;
46015;BME280;36844;51.898;-0.874;2023-01-25T12:53:00;102008.72;;;16.89;
46015;BME280;36844;51.898;-0.874;2023-01-25T12:55:26;102006.47;;;16.91;
46015;BME280;36844;51.898;-0.874;2023-01-25T12:58:00;102007.69;;;16.94;
46015;BME280;36844;51.898;-0.874;2023-01-25T13:00:31;102005.00;;;16.94;
46015;BME280;36844;51.898;-0.874;2023-01-25T13:03:15;101994.63;;;16.96;
46015;BME280;36844;51.898;-0.874;2023-01-25T13:10:34;101985.84;;;16.99;
46015;BME280;36844;51.898;-0.874;2023-01-25T13:13:01;101985.53;;;17.00;
46015;BME280;36844;51.898;-0.874;2023-01-25T13:15:36;101979.78;;;17.02;
46015;BME280;36844;51.898;-0.874;2023-01-25T13:18:24;101969.00;;;17.02;
46015;BME280;36844;51.898;-0.874;2023-01-25T13:20:48;101952.88;;;17.02;
46015;BME280;36844;51.898;-0.874;2023-01-25T13:23:28;101940.97;;;17.03;
46015;BME280;36844;51.898;-0.874;2023-01-25T13:28:43;101957.91;;;17.03;
46015;BME280;36844;51.898;-0.874;2023-01-25T13:31:13;101956.34;;;17.02;
46015;BME280;36844;51.898;-0.874;2023-01-25T13:33:55;101957.09;;;17.03;
46015;BME280;36844;51.898;-0.874;2023-01-25T13:41:58;101930.91;;;17.00;
46015;BME280;36844;51.898;-0.874;2023-01-25T13:44:24;101929.31;;;16.99;
46015;BME280;36844;51.898;-0.874;2023-01-25T13:46:52;101923.19;;;16.98;
46015;BME280;36844;51.898;-0.874;2023-01-25T13:49:20;101914.31;;;16.98;
46015;BME280;36844;51.898;-0.874;2023-01-25T13:51:46;101893.16;;;16.96;
46015;BME280;36844;51.898;-0.874;2023-01-25T13:54:15;101889.34;;;16.97;
46015;BME280;36844;51.898;-0.874;2023-01-25T13:56:41;101872.72;;;16.95;
46015;BME280;36844;51.898;-0.874;2023-01-25T13:59:20;101858.16;;;16.96;
46015;BME280;36844;51.898;-0.874;2023-01-25T14:01:47;101843.13;;;16.95;
46015;BME280;36844;51.898;-0.874;2023-01-25T14:04:12;101840.44;;;16.95;
46015;BME280;36844;51.898;-0.874;2023-01-25T14:06:37;101831.25;;;16.96;
46015;BME280;36844;51.898;-0.874;2023-01-25T14:09:05;101819.69;;;16.96;
46015;BME280;36844;51.898;-0.874;2023-01-25T14:11:35;101824.75;;;16.97;
46015;BME280;36844;51.898;-0.874;2023-01-25T14:16:38;101822.44;;;16.99;
46015;BME280;36844;51.898;-0.874;2023-01-25T14:19:20;101817.84;;;17.00;
46015;BME280;36844;51.898;-0.874;2023-01-25T14:21:46;101817.13;;;17.03;
46015;BME280;36844;51.898;-0.874;2023-01-25T14:24:13;101824.88;;;17.04;
46015;BME280;36844;51.898;-0.874;2023-01-25T14:26:42;101826.44;;;17.05;
46015;BME280;36844;51.898;-0.874;2023-01-25T14:29:18;101824.16;;;17.07;
46015;BME280;36844;51.898;-0.874;2023-01-25T14:31:45;101821.91;;;17.09;
46015;BME280;36844;51.898;-0.874;2023-01-25T14:34:15;101804.59;;;17.10;
46015;BME280;36844;51.898;-0.874;2023-01-25T14:36:41;101792.38;;;17.13;
46015;BME280;36844;51.898;-0.874;2023-01-25T14:39:21;101797.38;;;17.14;
46015;BME280;36844;51.898;-0.874;2023-01-25T14:41:48;101788.97;;;17.16;
46015;BME280;36844;51.898;-0.874;2023-01-25T14:44:18;101784.75;;;17.18;
46015;BME280;36844;51.898;-0.874;2023-01-25T14:46:44;101789.81;;;17.20;
46015;BME280;36844;51.898;-0.874;2023-01-25T14:49:22;101805.97;;;17.20;
46015;BME280;36844;51.898;-0.874;2023-01-25T14:52:10;101816.38;;;17.21;
46015;BME280;36844;51.898;-0.874;2023-01-25T14:54:42;101826.78;;;17.23;
46015;BME280;36844;51.898;-0.874;2023-01-25T14:57:24;101833.75;;;17.24;
46015;BME280;36844;51.898;-0.874;2023-01-25T14:59:51;101833.34;;;17.25;
46015;BME280;36844;51.898;-0.874;2023-01-25T15:02:38;101831.06;;;17.24;
46015;BME280;36844;51.898;-0.874;2023-01-25T15:05:04;101831.84;;;17.24;